Keyhole, WY

8:03 AM MDT on April 18, 2015 (GMT -0600)
WYDOT | | Change Station
CLOSE
Current Station
Personal Weather Station
Location: Pine Haven, WY
Elevation: 4350 ft
Nearby Weather Stations

Elev 4350 ft 44.29 °N, 104.63 °W | Updated 18 minutes ago

Partly Cloudy
Partly Cloudy
42 °F
Feels Like 42 °F
N
2
Wind Variable Wind from NW
Gusts 4.0 mph

Today
High -- | Low -- °F
--% Chance of Precip.
Yesterday
High -- | Low -- °F
Precip. -- in
6:10 AM 7:47 PM
Waning Crescent, 0% visible
Pressure 30.01 in
Visibility 10.0 miles
Clouds Mostly Cloudy 4600 ft
Windchill 42 °F
Dew Point 41 °F
Humidity 93%
Rainfall in
Snow Depth Not available.
UV 1 out of 12
Pollen 9.80 out of 12
Air Quality Not available.
Flu Activity Local Activity
METAR KW43 181355Z AUTO 00000KT 10SM BKN046 06/05 A3001 RMK AO2

More Conditions Fewer Conditions

Pressure 30.01 in
Visibility 10.0 miles
Clouds Mostly Cloudy 4600 ft
Windchill 42 °F
Dew Point 41 °F
Humidity 93%
Rainfall in
Snow Depth Not available.
UV 1 out of 12
Pollen 9.80 out of 12
Air Quality Not available.
Flu Activity Local Activity
METAR KW43 181355Z AUTO 00000KT 10SM BKN046 06/05 A3001 RMK AO2

More Conditions Fewer Conditions

10-Day Weather Forecast

Almanac

Astronomy

Apr. 18, 2015 Rise Set
Actual Time
Civil Twilight
Nautical Twilight
Astronomical Twilight
Moon
Length of Visible Light
Length of Day
Tomorrow will be .
, % of the Moon is Illuminated

Today's Extremes

State Highs State Lows

Community

WunderPhotos

Upload Photos

1,814,405 photos uploaded!

WunderBlogs® & News

Nearby

Air Quality

  Air Quality AQ Index Pollutant
Not available.

Snow Depth

Station Depth Elevation

Earthquake Activity

City Distance Mag. Time & Date
Minimum magnitude displayed is 2.5.

Coastal Water Temperatures

Place Temperature

Stations

Nearby Weather Stations

Station Location Temp. Windchill Dew Point Humidity Wind Precip. Elev Updated Type